sensor_id;sensor_type;location;lat;lon;timestamp;temperature;humidity
69162;DHT22;56269;51.738;21.652;2022-07-29T00:01:25;10.09;99.99
69162;DHT22;56269;51.738;21.652;2022-07-29T00:03:51;10.02;99.99
69162;DHT22;56269;51.738;21.652;2022-07-29T00:06:17;10.03;99.99
69162;DHT22;56269;51.738;21.652;2022-07-29T00:08:43;10.02;99.99
69162;DHT22;56269;51.738;21.652;2022-07-29T00:11:09;10.05;99.99
69162;DHT22;56269;51.738;21.652;2022-07-29T00:13:35;10.08;99.99
69162;DHT22;56269;51.738;21.652;2022-07-29T00:16:01;10.08;99.99
69162;DHT22;56269;51.738;21.652;2022-07-29T00:18:27;10.10;99.99
69162;DHT22;56269;51.738;21.652;2022-07-29T00:20:53;10.16;99.99
69162;DHT22;56269;51.738;21.652;2022-07-29T00:23:19;10.21;99.99
69162;DHT22;56269;51.738;21.652;2022-07-29T00:25:45;10.08;99.99
69162;DHT22;56269;51.738;21.652;2022-07-29T00:28:11;9.96;99.99
69162;DHT22;56269;51.738;21.652;2022-07-29T00:30:37;9.88;99.99
69162;DHT22;56269;51.738;21.652;2022-07-29T00:33:03;9.78;99.99
69162;DHT22;56269;51.738;21.652;2022-07-29T00:35:29;9.69;99.99
69162;DHT22;56269;51.738;21.652;2022-07-29T00:38:16;9.72;99.99
69162;DHT22;56269;51.738;21.652;2022-07-29T00:40:43;9.75;99.99
69162;DHT22;56269;51.738;21.652;2022-07-29T00:43:10;9.81;99.99
69162;DHT22;56269;51.738;21.652;2022-07-29T00:45:36;9.81;99.99
69162;DHT22;56269;51.738;21.652;2022-07-29T00:48:03;9.82;99.99
69162;DHT22;56269;51.738;21.652;2022-07-29T00:50:31;9.90;99.99
69162;DHT22;56269;51.738;21.652;2022-07-29T00:52:58;9.99;99.99
69162;DHT22;56269;51.738;21.652;2022-07-29T00:55:24;9.96;99.99
69162;DHT22;56269;51.738;21.652;2022-07-29T00:57:51;10.03;99.99
69162;DHT22;56269;51.738;21.652;2022-07-29T01:00:21;9.92;99.99
69162;DHT22;56269;51.738;21.652;2022-07-29T01:02:48;9.79;99.99
69162;DHT22;56269;51.738;21.652;2022-07-29T01:05:20;9.74;99.99
69162;DHT22;56269;51.738;21.652;2022-07-29T01:07:47;9.62;99.99
69162;DHT22;56269;51.738;21.652;2022-07-29T01:10:15;9.67;99.99
69162;DHT22;56269;51.738;21.652;2022-07-29T01:12:43;9.71;99.99
69162;DHT22;56269;51.738;21.652;2022-07-29T01:15:11;9.65;99.99
69162;DHT22;56269;51.738;21.652;2022-07-29T01:18:05;9.45;99.99
69162;DHT22;56269;51.738;21.652;2022-07-29T01:26:09;9.68;99.99
69162;DHT22;56269;51.738;21.652;2022-07-29T01:29:02;9.79;99.99
69162;DHT22;56269;51.738;21.652;2022-07-29T01:31:38;9.90;99.99
69162;DHT22;56269;51.738;21.652;2022-07-29T01:34:08;9.89;99.99
69162;DHT22;56269;51.738;21.652;2022-07-29T01:36:42;9.77;99.99
69162;DHT22;56269;51.738;21.652;2022-07-29T01:39:12;9.75;99.99
69162;DHT22;56269;51.738;21.652;2022-07-29T01:41:47;9.75;99.99
69162;DHT22;56269;51.738;21.652;2022-07-29T01:44:20;9.75;99.99
69162;DHT22;56269;51.738;21.652;2022-07-29T01:46:58;9.77;99.99
69162;DHT22;56269;51.738;21.652;2022-07-29T01:49:29;9.74;99.99
69162;DHT22;56269;51.738;21.652;2022-07-29T01:52:13;9.82;99.99
69162;DHT22;56269;51.738;21.652;2022-07-29T01:54:46;9.72;99.99
69162;DHT22;56269;51.738;21.652;2022-07-29T01:57:15;9.51;99.99
69162;DHT22;56269;51.738;21.652;2022-07-29T01:59:47;9.37;99.99
69162;DHT22;56269;51.738;21.652;2022-07-29T02:02:15;9.34;99.99
69162;DHT22;56269;51.738;21.652;2022-07-29T02:04:43;9.34;99.99
69162;DHT22;56269;51.738;21.652;2022-07-29T02:07:15;9.41;99.99
69162;DHT22;56269;51.738;21.652;2022-07-29T02:09:43;9.51;99.99
69162;DHT22;56269;51.738;21.652;2022-07-29T02:12:11;9.61;99.99
69162;DHT22;56269;51.738;21.652;2022-07-29T02:14:43;9.72;99.99
69162;DHT22;56269;51.738;21.652;2022-07-29T02:17:11;9.78;99.99
69162;DHT22;56269;51.738;21.652;2022-07-29T02:19:38;9.68;99.99
69162;DHT22;56269;51.738;21.652;2022-07-29T02:22:08;9.63;99.99
69162;DHT22;56269;51.738;21.652;2022-07-29T02:24:36;9.71;99.99
69162;DHT22;56269;51.738;21.652;2022-07-29T02:27:03;9.51;99.99
69162;DHT22;56269;51.738;21.652;2022-07-29T02:29:31;9.55;99.99
69162;DHT22;56269;51.738;21.652;2022-07-29T02:31:58;9.58;99.99
69162;DHT22;56269;51.738;21.652;2022-07-29T02:34:27;9.77;99.99
69162;DHT22;56269;51.738;21.652;2022-07-29T02:36:54;9.71;99.99
69162;DHT22;56269;51.738;21.652;2022-07-29T02:39:22;9.61;99.99
69162;DHT22;56269;51.738;21.652;2022-07-29T02:42:02;9.51;99.99
69162;DHT22;56269;51.738;21.652;2022-07-29T02:44:29;9.55;99.99
69162;DHT22;56269;51.738;21.652;2022-07-29T02:49:38;9.69;99.99
69162;DHT22;56269;51.738;21.652;2022-07-29T02:52:16;9.59;99.99
69162;DHT22;56269;51.738;21.652;2022-07-29T02:57:35;9.49;99.99
69162;DHT22;56269;51.738;21.652;2022-07-29T03:00:06;9.47;99.99
69162;DHT22;56269;51.738;21.652;2022-07-29T03:02:40;9.34;99.99
69162;DHT22;56269;51.738;21.652;2022-07-29T03:05:08;9.30;99.99
69162;DHT22;56269;51.738;21.652;2022-07-29T03:07:36;9.31;99.99
69162;DHT22;56269;51.738;21.652;2022-07-29T03:10:03;9.28;99.99
69162;DHT22;56269;51.738;21.652;2022-07-29T03:12:31;9.38;99.99
69162;DHT22;56269;51.738;21.652;2022-07-29T03:14:57;9.52;99.99
69162;DHT22;56269;51.738;21.652;2022-07-29T03:17:24;9.55;99.99
69162;DHT22;56269;51.738;21.652;2022-07-29T03:19:51;9.63;99.99
69162;DHT22;56269;51.738;21.652;2022-07-29T03:22:17;9.67;99.99
69162;DHT22;56269;51.738;21.652;2022-07-29T03:24:43;9.68;99.99
69162;DHT22;56269;51.738;21.652;2022-07-29T03:27:09;9.67;99.99
69162;DHT22;56269;51.738;21.652;2022-07-29T03:29:35;9.61;99.99
69162;DHT22;56269;51.738;21.652;2022-07-29T03:32:03;9.65;99.99
69162;DHT22;56269;51.738;21.652;2022-07-29T03:34:30;9.69;99.99
69162;DHT22;56269;51.738;21.652;2022-07-29T03:36:56;9.71;99.99
69162;DHT22;56269;51.738;21.652;2022-07-29T03:39:24;9.79;99.99
69162;DHT22;56269;51.738;21.652;2022-07-29T03:41:54;9.82;99.99
69162;DHT22;56269;51.738;21.652;2022-07-29T03:44:21;9.83;99.99
69162;DHT22;56269;51.738;21.652;2022-07-29T03:46:49;9.85;99.99
69162;DHT22;56269;51.738;21.652;2022-07-29T03:49:16;9.88;99.99
69162;DHT22;56269;51.738;21.652;2022-07-29T03:51:44;9.96;99.99
69162;DHT22;56269;51.738;21.652;2022-07-29T03:54:10;10.19;99.99
69162;DHT22;56269;51.738;21.652;2022-07-29T03:56:40;10.24;99.99
69162;DHT22;56269;51.738;21.652;2022-07-29T03:59:07;10.41;99.99
69162;DHT22;56269;51.738;21.652;2022-07-29T04:01:33;10.54;99.99
69162;DHT22;56269;51.738;21.652;2022-07-29T04:04:01;10.75;99.99
69162;DHT22;56269;51.738;21.652;2022-07-29T04:06:27;10.85;99.99
69162;DHT22;56269;51.738;21.652;2022-07-29T04:08:53;10.88;99.99
69162;DHT22;56269;51.738;21.652;2022-07-29T04:11:19;10.97;99.99
69162;DHT22;56269;51.738;21.652;2022-07-29T04:13:45;11.38;99.99
69162;DHT22;56269;51.738;21.652;2022-07-29T04:16:11;11.59;99.99
69162;DHT22;56269;51.738;21.652;2022-07-29T04:18:37;11.74;99.95
69162;DHT22;56269;51.738;21.652;2022-07-29T04:21:03;12.20;99.57
69162;DHT22;56269;51.738;21.652;2022-07-29T04:23:35;12.59;98.45
69162;DHT22;56269;51.738;21.652;2022-07-29T04:26:01;12.78;97.51
69162;DHT22;56269;51.738;21.652;2022-07-29T04:28:27;13.12;96.76
69162;DHT22;56269;51.738;21.652;2022-07-29T04:30:53;13.95;93.50
69162;DHT22;56269;51.738;21.652;2022-07-29T04:33:19;14.68;90.50
69162;DHT22;56269;51.738;21.652;2022-07-29T04:35:45;15.14;88.53
69162;DHT22;56269;51.738;21.652;2022-07-29T04:38:11;15.40;87.99
69162;DHT22;56269;51.738;21.652;2022-07-29T04:40:37;15.52;88.37
69162;DHT22;56269;51.738;21.652;2022-07-29T04:43:03;15.83;88.16
69162;DHT22;56269;51.738;21.652;2022-07-29T04:45:29;16.06;86.24
69162;DHT22;56269;51.738;21.652;2022-07-29T04:47:55;16.27;86.05
69162;DHT22;56269;51.738;21.652;2022-07-29T04:50:21;16.43;84.79
69162;DHT22;56269;51.738;21.652;2022-07-29T04:52:47;16.53;84.16
69162;DHT22;56269;51.738;21.652;2022-07-29T04:55:13;16.78;84.07
69162;DHT22;56269;51.738;21.652;2022-07-29T04:57:39;16.74;83.95
69162;DHT22;56269;51.738;21.652;2022-07-29T05:00:07;17.11;83.65
69162;DHT22;56269;51.738;21.652;2022-07-29T05:02:33;17.18;83.50
69162;DHT22;56269;51.738;21.652;2022-07-29T05:04:59;17.16;83.61
69162;DHT22;56269;51.738;21.652;2022-07-29T05:07:25;17.32;82.35
69162;DHT22;56269;51.738;21.652;2022-07-29T05:09:51;17.40;82.16
69162;DHT22;56269;51.738;21.652;2022-07-29T05:12:18;17.83;82.32
69162;DHT22;56269;51.738;21.652;2022-07-29T05:14:44;18.18;80.27
69162;DHT22;56269;51.738;21.652;2022-07-29T05:17:10;18.26;79.26
69162;DHT22;56269;51.738;21.652;2022-07-29T05:19:36;18.40;80.12
69162;DHT22;56269;51.738;21.652;2022-07-29T05:22:02;18.67;80.79
69162;DHT22;56269;51.738;21.652;2022-07-29T05:24:28;18.51;79.21
69162;DHT22;56269;51.738;21.652;2022-07-29T05:26:54;18.86;80.59
69162;DHT22;56269;51.738;21.652;2022-07-29T05:29:20;19.02;77.76
69162;DHT22;56269;51.738;21.652;2022-07-29T05:31:46;19.27;77.37
69162;DHT22;56269;51.738;21.652;2022-07-29T05:34:12;18.99;76.98
69162;DHT22;56269;51.738;21.652;2022-07-29T05:36:38;19.31;77.20
69162;DHT22;56269;51.738;21.652;2022-07-29T05:39:04;19.33;76.53
69162;DHT22;56269;51.738;21.652;2022-07-29T05:41:33;19.15;75.84
69162;DHT22;56269;51.738;21.652;2022-07-29T05:43:59;19.27;75.62
69162;DHT22;56269;51.738;21.652;2022-07-29T05:46:25;19.85;76.69
69162;DHT22;56269;51.738;21.652;2022-07-29T05:48:51;19.97;74.59
69162;DHT22;56269;51.738;21.652;2022-07-29T05:51:17;19.94;73.53
69162;DHT22;56269;51.738;21.652;2022-07-29T05:53:43;20.05;72.92
69162;DHT22;56269;51.738;21.652;2022-07-29T05:56:10;20.02;73.29
69162;DHT22;56269;51.738;21.652;2022-07-29T05:58:36;20.09;73.42
69162;DHT22;56269;51.738;21.652;2022-07-29T06:01:02;20.45;72.59
69162;DHT22;56269;51.738;21.652;2022-07-29T06:03:28;20.68;72.30
69162;DHT22;56269;51.738;21.652;2022-07-29T06:05:54;20.45;71.76
69162;DHT22;56269;51.738;21.652;2022-07-29T06:08:20;21.24;71.50
69162;DHT22;56269;51.738;21.652;2022-07-29T06:10:46;21.15;69.06
69162;DHT22;56269;51.738;21.652;2022-07-29T06:13:13;21.58;69.64
69162;DHT22;56269;51.738;21.652;2022-07-29T06:15:42;21.21;70.15
69162;DHT22;56269;51.738;21.652;2022-07-29T06:18:08;21.17;69.93
69162;DHT22;56269;51.738;21.652;2022-07-29T06:20:35;21.38;69.71
69162;DHT22;56269;51.738;21.652;2022-07-29T06:23:02;21.00;69.67
69162;DHT22;56269;51.738;21.652;2022-07-29T06:25:30;21.57;68.19
69162;DHT22;56269;51.738;21.652;2022-07-29T06:28:00;21.52;67.53
69162;DHT22;56269;51.738;21.652;2022-07-29T06:30:26;21.37;68.21
69162;DHT22;56269;51.738;21.652;2022-07-29T06:32:54;21.64;68.81
69162;DHT22;56269;51.738;21.652;2022-07-29T06:35:20;21.96;66.65
69162;DHT22;56269;51.738;21.652;2022-07-29T06:37:47;22.25;66.49
69162;DHT22;56269;51.738;21.652;2022-07-29T06:40:13;22.19;63.42
69162;DHT22;56269;51.738;21.652;2022-07-29T06:42:57;22.36;64.45
69162;DHT22;56269;51.738;21.652;2022-07-29T06:45:23;22.52;63.83
69162;DHT22;56269;51.738;21.652;2022-07-29T06:47:50;22.49;63.18
69162;DHT22;56269;51.738;21.652;2022-07-29T06:50:16;22.43;63.48
69162;DHT22;56269;51.738;21.652;2022-07-29T06:52:42;22.84;63.25
69162;DHT22;56269;51.738;21.652;2022-07-29T06:55:08;22.86;62.82
69162;DHT22;56269;51.738;21.652;2022-07-29T06:57:34;22.77;66.18
69162;DHT22;56269;51.738;21.652;2022-07-29T07:00:00;22.71;60.94
69162;DHT22;56269;51.738;21.652;2022-07-29T07:02:27;23.44;61.68
69162;DHT22;56269;51.738;21.652;2022-07-29T07:04:53;23.45;60.19
69162;DHT22;56269;51.738;21.652;2022-07-29T07:07:18;23.00;59.17
69162;DHT22;56269;51.738;21.652;2022-07-29T07:09:44;23.26;58.80
69162;DHT22;56269;51.738;21.652;2022-07-29T07:12:10;23.46;59.91
69162;DHT22;56269;51.738;21.652;2022-07-29T07:14:36;23.25;57.26
69162;DHT22;56269;51.738;21.652;2022-07-29T07:17:02;22.95;58.19
69162;DHT22;56269;51.738;21.652;2022-07-29T07:19:29;22.74;57.74
69162;DHT22;56269;51.738;21.652;2022-07-29T07:21:55;23.12;57.71
69162;DHT22;56269;51.738;21.652;2022-07-29T07:24:21;22.80;57.74
69162;DHT22;56269;51.738;21.652;2022-07-29T07:26:47;23.22;59.31
69162;DHT22;56269;51.738;21.652;2022-07-29T07:29:13;23.72;54.94
69162;DHT22;56269;51.738;21.652;2022-07-29T07:31:39;23.96;56.36
69162;DHT22;56269;51.738;21.652;2022-07-29T07:34:05;23.35;56.21
69162;DHT22;56269;51.738;21.652;2022-07-29T07:36:31;23.86;58.70
69162;DHT22;56269;51.738;21.652;2022-07-29T07:38:56;24.17;55.38
69162;DHT22;56269;51.738;21.652;2022-07-29T07:41:23;24.09;55.35
69162;DHT22;56269;51.738;21.652;2022-07-29T07:43:48;24.33;54.44
69162;DHT22;56269;51.738;21.652;2022-07-29T07:46:15;24.75;54.93
69162;DHT22;56269;51.738;21.652;2022-07-29T07:48:41;24.87;53.57
69162;DHT22;56269;51.738;21.652;2022-07-29T07:51:07;24.94;53.68
69162;DHT22;56269;51.738;21.652;2022-07-29T07:53:33;25.04;54.10
69162;DHT22;56269;51.738;21.652;2022-07-29T07:56:00;25.56;53.63
69162;DHT22;56269;51.738;21.652;2022-07-29T07:58:26;25.07;52.13
69162;DHT22;56269;51.738;21.652;2022-07-29T08:00:51;25.25;51.86
69162;DHT22;56269;51.738;21.652;2022-07-29T08:03:18;25.29;53.51
69162;DHT22;56269;51.738;21.652;2022-07-29T08:05:44;25.12;51.75
69162;DHT22;56269;51.738;21.652;2022-07-29T08:08:10;24.72;52.54
69162;DHT22;56269;51.738;21.652;2022-07-29T08:10:36;25.58;52.28
69162;DHT22;56269;51.738;21.652;2022-07-29T08:13:24;25.35;53.35
69162;DHT22;56269;51.738;21.652;2022-07-29T08:15:51;25.87;54.23
69162;DHT22;56269;51.738;21.652;2022-07-29T08:18:27;25.46;51.40
69162;DHT22;56269;51.738;21.652;2022-07-29T08:20:54;25.62;51.36
69162;DHT22;56269;51.738;21.652;2022-07-29T08:23:20;25.32;51.01
69162;DHT22;56269;51.738;21.652;2022-07-29T08:25:46;25.20;51.27
69162;DHT22;56269;51.738;21.652;2022-07-29T08:28:14;25.47;51.60
69162;DHT22;56269;51.738;21.652;2022-07-29T08:30:40;25.08;53.78
69162;DHT22;56269;51.738;21.652;2022-07-29T08:33:06;25.76;51.00
69162;DHT22;56269;51.738;21.652;2022-07-29T08:35:32;25.74;50.28
69162;DHT22;56269;51.738;21.652;2022-07-29T08:37:58;25.43;50.21
69162;DHT22;56269;51.738;21.652;2022-07-29T08:40:24;25.46;50.69
69162;DHT22;56269;51.738;21.652;2022-07-29T08:42:51;24.85;51.50
69162;DHT22;56269;51.738;21.652;2022-07-29T08:45:17;25.42;50.90
69162;DHT22;56269;51.738;21.652;2022-07-29T08:47:44;25.63;50.75
69162;DHT22;56269;51.738;21.652;2022-07-29T08:50:11;26.16;48.67
69162;DHT22;56269;51.738;21.652;2022-07-29T08:52:39;25.42;50.41
69162;DHT22;56269;51.738;21.652;2022-07-29T08:55:06;25.84;49.45
69162;DHT22;56269;51.738;21.652;2022-07-29T08:57:34;25.69;47.47
69162;DHT22;56269;51.738;21.652;2022-07-29T09:00:05;26.27;48.50
69162;DHT22;56269;51.738;21.652;2022-07-29T09:02:35;26.21;47.66
69162;DHT22;56269;51.738;21.652;2022-07-29T09:05:04;25.98;49.25
69162;DHT22;56269;51.738;21.652;2022-07-29T09:07:30;26.18;48.79
69162;DHT22;56269;51.738;21.652;2022-07-29T09:09:57;26.44;47.55
69162;DHT22;56269;51.738;21.652;2022-07-29T09:12:23;26.96;46.10
69162;DHT22;56269;51.738;21.652;2022-07-29T09:14:50;27.47;46.77
69162;DHT22;56269;51.738;21.652;2022-07-29T09:17:16;26.71;46.66
69162;DHT22;56269;51.738;21.652;2022-07-29T09:19:43;26.85;48.06
69162;DHT22;56269;51.738;21.652;2022-07-29T09:22:09;27.29;46.98
69162;DHT22;56269;51.738;21.652;2022-07-29T09:24:46;26.14;46.51
69162;DHT22;56269;51.738;21.652;2022-07-29T09:27:24;26.41;47.07
69162;DHT22;56269;51.738;21.652;2022-07-29T09:29:58;24.69;50.15
69162;DHT22;56269;51.738;21.652;2022-07-29T09:32:25;24.63;52.36
69162;DHT22;56269;51.738;21.652;2022-07-29T09:35:15;25.46;50.27
69162;DHT22;56269;51.738;21.652;2022-07-29T09:37:43;25.67;49.52
69162;DHT22;56269;51.738;21.652;2022-07-29T09:40:20;25.50;49.37
69162;DHT22;56269;51.738;21.652;2022-07-29T09:42:47;26.14;47.16
69162;DHT22;56269;51.738;21.652;2022-07-29T09:45:30;26.42;46.52
69162;DHT22;56269;51.738;21.652;2022-07-29T09:47:57;26.13;49.00
69162;DHT22;56269;51.738;21.652;2022-07-29T09:50:39;27.36;48.29
69162;DHT22;56269;51.738;21.652;2022-07-29T09:53:06;26.01;49.06
69162;DHT22;56269;51.738;21.652;2022-07-29T09:55:32;25.59;47.89
69162;DHT22;56269;51.738;21.652;2022-07-29T09:58:20;26.07;49.78
69162;DHT22;56269;51.738;21.652;2022-07-29T10:00:48;26.90;45.61
69162;DHT22;56269;51.738;21.652;2022-07-29T10:03:16;26.73;45.87
69162;DHT22;56269;51.738;21.652;2022-07-29T10:05:43;25.66;47.00
69162;DHT22;56269;51.738;21.652;2022-07-29T10:08:10;25.43;47.30
69162;DHT22;56269;51.738;21.652;2022-07-29T10:10:41;26.47;48.54
69162;DHT22;56269;51.738;21.652;2022-07-29T10:13:10;26.00;47.46
69162;DHT22;56269;51.738;21.652;2022-07-29T10:15:41;26.56;47.98
69162;DHT22;56269;51.738;21.652;2022-07-29T10:18:10;27.37;47.15
69162;DHT22;56269;51.738;21.652;2022-07-29T10:20:37;27.54;43.36
69162;DHT22;56269;51.738;21.652;2022-07-29T10:23:04;27.64;44.84
69162;DHT22;56269;51.738;21.652;2022-07-29T10:25:31;26.90;46.18
69162;DHT22;56269;51.738;21.652;2022-07-29T10:27:58;27.33;44.77
69162;DHT22;56269;51.738;21.652;2022-07-29T10:30:25;26.63;45.38
69162;DHT22;56269;51.738;21.652;2022-07-29T10:33:08;26.67;44.05
69162;DHT22;56269;51.738;21.652;2022-07-29T10:38:51;26.00;45.92
69162;DHT22;56269;51.738;21.652;2022-07-29T10:41:43;25.30;48.16
69162;DHT22;56269;51.738;21.652;2022-07-29T10:46:40;25.67;48.59
69162;DHT22;56269;51.738;21.652;2022-07-29T10:49:26;25.89;48.24
69162;DHT22;56269;51.738;21.652;2022-07-29T10:52:05;26.28;46.74
69162;DHT22;56269;51.738;21.652;2022-07-29T10:54:45;26.21;46.35
69162;DHT22;56269;51.738;21.652;2022-07-29T10:59:49;25.83;47.78
69162;DHT22;56269;51.738;21.652;2022-07-29T11:05:09;26.07;48.84
69162;DHT22;56269;51.738;21.652;2022-07-29T11:07:36;25.42;47.67
69162;DHT22;56269;51.738;21.652;2022-07-29T11:15:14;25.39;48.75
69162;DHT22;56269;51.738;21.652;2022-07-29T11:23:34;25.86;47.42
69162;DHT22;56269;51.738;21.652;2022-07-29T11:34:22;26.67;44.33
69162;DHT22;56269;51.738;21.652;2022-07-29T11:37:16;26.79;44.10
69162;DHT22;56269;51.738;21.652;2022-07-29T11:45:04;26.75;44.26
69162;DHT22;56269;51.738;21.652;2022-07-29T11:47:32;26.30;45.10
69162;DHT22;56269;51.738;21.652;2022-07-29T11:50:00;26.59;45.43
69162;DHT22;56269;51.738;21.652;2022-07-29T11:52:41;26.41;46.55
69162;DHT22;56269;51.738;21.652;2022-07-29T11:55:13;26.22;48.29
69162;DHT22;56269;51.738;21.652;2022-07-29T11:57:51;26.31;45.68
69162;DHT22;56269;51.738;21.652;2022-07-29T12:00:27;26.65;44.30
69162;DHT22;56269;51.738;21.652;2022-07-29T12:02:54;26.53;46.57
69162;DHT22;56269;51.738;21.652;2022-07-29T12:05:21;26.27;44.36
69162;DHT22;56269;51.738;21.652;2022-07-29T12:07:47;26.24;45.65
69162;DHT22;56269;51.738;21.652;2022-07-29T12:10:14;26.49;44.59
69162;DHT22;56269;51.738;21.652;2022-07-29T12:12:41;26.04;47.03
69162;DHT22;56269;51.738;21.652;2022-07-29T12:15:25;26.41;45.36
69162;DHT22;56269;51.738;21.652;2022-07-29T12:17:52;26.53;44.60
69162;DHT22;56269;51.738;21.652;2022-07-29T12:20:26;26.52;46.82
69162;DHT22;56269;51.738;21.652;2022-07-29T12:22:52;26.38;47.02
69162;DHT22;56269;51.738;21.652;2022-07-29T12:25:20;26.62;43.56
69162;DHT22;56269;51.738;21.652;2022-07-29T12:27:46;26.37;46.01
69162;DHT22;56269;51.738;21.652;2022-07-29T12:30:15;26.38;45.51
69162;DHT22;56269;51.738;21.652;2022-07-29T12:32:48;25.97;45.34
69162;DHT22;56269;51.738;21.652;2022-07-29T12:35:16;25.76;45.37
69162;DHT22;56269;51.738;21.652;2022-07-29T12:37:46;25.71;45.86
69162;DHT22;56269;51.738;21.652;2022-07-29T12:40:18;25.79;45.87
69162;DHT22;56269;51.738;21.652;2022-07-29T12:45:45;25.62;45.25
69162;DHT22;56269;51.738;21.652;2022-07-29T12:48:11;26.55;45.33
69162;DHT22;56269;51.738;21.652;2022-07-29T12:50:56;27.09;45.50
69162;DHT22;56269;51.738;21.652;2022-07-29T12:53:23;27.23;45.23
69162;DHT22;56269;51.738;21.652;2022-07-29T12:55:51;26.89;44.23
69162;DHT22;56269;51.738;21.652;2022-07-29T13:01:14;26.90;43.81
69162;DHT22;56269;51.738;21.652;2022-07-29T13:03:45;27.10;43.64
69162;DHT22;56269;51.738;21.652;2022-07-29T13:06:39;26.63;44.45
69162;DHT22;56269;51.738;21.652;2022-07-29T13:09:15;26.11;45.03
69162;DHT22;56269;51.738;21.652;2022-07-29T13:11:43;26.00;46.91
69162;DHT22;56269;51.738;21.652;2022-07-29T13:14:12;26.63;43.99
69162;DHT22;56269;51.738;21.652;2022-07-29T13:17:40;26.51;44.42
69162;DHT22;56269;51.738;21.652;2022-07-29T13:19:53;26.79;45.50
69162;DHT22;56269;51.738;21.652;2022-07-29T13:22:23;26.99;43.75
69162;DHT22;56269;51.738;21.652;2022-07-29T13:24:59;26.45;42.50
69162;DHT22;56269;51.738;21.652;2022-07-29T13:27:32;26.20;45.47
69162;DHT22;56269;51.738;21.652;2022-07-29T13:30:00;26.27;44.47
69162;DHT22;56269;51.738;21.652;2022-07-29T13:32:28;25.63;48.29
69162;DHT22;56269;51.738;21.652;2022-07-29T13:34:59;25.01;47.85
69162;DHT22;56269;51.738;21.652;2022-07-29T13:37:26;25.33;48.82
69162;DHT22;56269;51.738;21.652;2022-07-29T13:39:55;25.71;47.07
69162;DHT22;56269;51.738;21.652;2022-07-29T13:42:22;25.98;45.49
69162;DHT22;56269;51.738;21.652;2022-07-29T13:44:48;25.81;45.02
69162;DHT22;56269;51.738;21.652;2022-07-29T13:47:17;25.81;44.67
69162;DHT22;56269;51.738;21.652;2022-07-29T13:49:43;25.90;44.56
69162;DHT22;56269;51.738;21.652;2022-07-29T13:52:09;25.91;45.07
69162;DHT22;56269;51.738;21.652;2022-07-29T13:54:35;26.01;44.40
69162;DHT22;56269;51.738;21.652;2022-07-29T13:57:04;26.07;46.19
69162;DHT22;56269;51.738;21.652;2022-07-29T13:59:30;26.07;46.43
69162;DHT22;56269;51.738;21.652;2022-07-29T14:01:56;26.04;47.21
69162;DHT22;56269;51.738;21.652;2022-07-29T14:04:22;25.84;47.77
69162;DHT22;56269;51.738;21.652;2022-07-29T14:06:51;25.18;49.18
69162;DHT22;56269;51.738;21.652;2022-07-29T14:09:17;25.67;46.65
69162;DHT22;56269;51.738;21.652;2022-07-29T14:11:43;25.81;45.77
69162;DHT22;56269;51.738;21.652;2022-07-29T14:14:09;25.36;48.72
69162;DHT22;56269;51.738;21.652;2022-07-29T14:16:36;25.19;46.62
69162;DHT22;56269;51.738;21.652;2022-07-29T14:19:02;25.84;46.53
69162;DHT22;56269;51.738;21.652;2022-07-29T14:21:28;26.00;47.43
69162;DHT22;56269;51.738;21.652;2022-07-29T14:23:54;26.00;43.88
69162;DHT22;56269;51.738;21.652;2022-07-29T14:26:21;26.38;45.68
69162;DHT22;56269;51.738;21.652;2022-07-29T14:28:48;26.56;44.94
69162;DHT22;56269;51.738;21.652;2022-07-29T14:31:14;26.62;43.56
69162;DHT22;56269;51.738;21.652;2022-07-29T14:33:40;26.95;42.94
69162;DHT22;56269;51.738;21.652;2022-07-29T14:36:06;27.80;41.70
69162;DHT22;56269;51.738;21.652;2022-07-29T14:38:33;27.37;41.79
69162;DHT22;56269;51.738;21.652;2022-07-29T14:40:59;27.34;40.93
69162;DHT22;56269;51.738;21.652;2022-07-29T14:43:25;27.54;41.46
69162;DHT22;56269;51.738;21.652;2022-07-29T14:45:51;27.53;42.36
69162;DHT22;56269;51.738;21.652;2022-07-29T14:48:17;27.63;40.80
69162;DHT22;56269;51.738;21.652;2022-07-29T14:50:43;27.57;41.31
69162;DHT22;56269;51.738;21.652;2022-07-29T14:53:09;27.39;40.57
69162;DHT22;56269;51.738;21.652;2022-07-29T14:55:37;26.98;44.27
69162;DHT22;56269;51.738;21.652;2022-07-29T14:58:03;26.62;43.00
69162;DHT22;56269;51.738;21.652;2022-07-29T15:00:29;27.07;43.21
69162;DHT22;56269;51.738;21.652;2022-07-29T15:02:59;27.03;41.99
69162;DHT22;56269;51.738;21.652;2022-07-29T15:05:26;26.79;43.96
69162;DHT22;56269;51.738;21.652;2022-07-29T15:07:52;27.10;42.77
69162;DHT22;56269;51.738;21.652;2022-07-29T15:10:18;27.70;42.24
69162;DHT22;56269;51.738;21.652;2022-07-29T15:12:44;27.53;41.60
69162;DHT22;56269;51.738;21.652;2022-07-29T15:15:10;27.20;42.41
69162;DHT22;56269;51.738;21.652;2022-07-29T15:17:35;26.32;44.75
69162;DHT22;56269;51.738;21.652;2022-07-29T15:20:03;25.87;44.59
69162;DHT22;56269;51.738;21.652;2022-07-29T15:22:29;26.02;44.70
69162;DHT22;56269;51.738;21.652;2022-07-29T15:24:55;26.52;44.27
69162;DHT22;56269;51.738;21.652;2022-07-29T15:27:21;26.81;45.98
69162;DHT22;56269;51.738;21.652;2022-07-29T15:29:47;26.95;42.91
69162;DHT22;56269;51.738;21.652;2022-07-29T15:32:13;27.33;43.65
69162;DHT22;56269;51.738;21.652;2022-07-29T15:34:39;26.83;42.62
69162;DHT22;56269;51.738;21.652;2022-07-29T15:37:05;26.44;43.87
69162;DHT22;56269;51.738;21.652;2022-07-29T15:39:32;25.96;44.71
69162;DHT22;56269;51.738;21.652;2022-07-29T15:41:58;26.51;45.61
69162;DHT22;56269;51.738;21.652;2022-07-29T15:44:28;26.69;43.93
69162;DHT22;56269;51.738;21.652;2022-07-29T15:46:53;26.10;43.54
69162;DHT22;56269;51.738;21.652;2022-07-29T15:52:03;26.21;44.58
69162;DHT22;56269;51.738;21.652;2022-07-29T15:54:33;26.05;45.62
69162;DHT22;56269;51.738;21.652;2022-07-29T15:56:59;26.11;44.43
69162;DHT22;56269;51.738;21.652;2022-07-29T15:59:26;25.91;44.56
69162;DHT22;56269;51.738;21.652;2022-07-29T16:01:52;26.02;45.06
69162;DHT22;56269;51.738;21.652;2022-07-29T16:04:18;25.90;45.40
69162;DHT22;56269;51.738;21.652;2022-07-29T16:06:45;26.02;45.61
69162;DHT22;56269;51.738;21.652;2022-07-29T16:09:12;25.18;45.64
69162;DHT22;56269;51.738;21.652;2022-07-29T16:11:39;25.54;45.59
69162;DHT22;56269;51.738;21.652;2022-07-29T16:14:05;25.25;44.97
69162;DHT22;56269;51.738;21.652;2022-07-29T16:16:31;25.46;45.83
69162;DHT22;56269;51.738;21.652;2022-07-29T16:18:57;25.65;45.40
69162;DHT22;56269;51.738;21.652;2022-07-29T16:21:23;25.49;45.71
69162;DHT22;56269;51.738;21.652;2022-07-29T16:23:50;25.67;46.37